sensor_id;sensor_type;location;lat;lon;timestamp;P1;durP1;ratioP1;P2;durP2;ratioP2
5831;SDS011;50943;51.448;7.646;2023-02-12T00:00:04;86.57;;;35.07;;
5831;SDS011;50943;51.448;7.646;2023-02-12T00:02:31;86.20;;;32.20;;
5831;SDS011;50943;51.448;7.646;2023-02-12T00:04:58;72.73;;;30.90;;
5831;SDS011;50943;51.448;7.646;2023-02-12T00:07:25;83.07;;;32.07;;
5831;SDS011;50943;51.448;7.646;2023-02-12T00:09:56;84.90;;;33.80;;
5831;SDS011;50943;51.448;7.646;2023-02-12T00:12:23;79.13;;;31.67;;
5831;SDS011;50943;51.448;7.646;2023-02-12T00:14:49;84.77;;;31.87;;
5831;SDS011;50943;51.448;7.646;2023-02-12T00:17:16;88.87;;;33.50;;
5831;SDS011;50943;51.448;7.646;2023-02-12T00:19:43;78.87;;;32.20;;
5831;SDS011;50943;51.448;7.646;2023-02-12T00:22:09;82.83;;;33.03;;
5831;SDS011;50943;51.448;7.646;2023-02-12T00:24:36;77.73;;;33.07;;
5831;SDS011;50943;51.448;7.646;2023-02-12T00:27:04;84.67;;;32.17;;
5831;SDS011;50943;51.448;7.646;2023-02-12T00:29:30;85.70;;;31.67;;
5831;SDS011;50943;51.448;7.646;2023-02-12T00:31:57;73.80;;;30.40;;
5831;SDS011;50943;51.448;7.646;2023-02-12T00:34:24;78.67;;;31.40;;
5831;SDS011;50943;51.448;7.646;2023-02-12T00:36:50;83.67;;;34.40;;
5831;SDS011;50943;51.448;7.646;2023-02-12T00:39:17;79.27;;;33.03;;
5831;SDS011;50943;51.448;7.646;2023-02-12T00:41:44;79.57;;;31.00;;
5831;SDS011;50943;51.448;7.646;2023-02-12T00:44:12;77.90;;;32.40;;
5831;SDS011;50943;51.448;7.646;2023-02-12T00:46:38;74.17;;;31.70;;
5831;SDS011;50943;51.448;7.646;2023-02-12T00:49:05;83.87;;;34.07;;
5831;SDS011;50943;51.448;7.646;2023-02-12T00:51:32;85.97;;;32.97;;
5831;SDS011;50943;51.448;7.646;2023-02-12T00:53:58;87.73;;;33.37;;
5831;SDS011;50943;51.448;7.646;2023-02-12T00:56:25;84.33;;;33.33;;
5831;SDS011;50943;51.448;7.646;2023-02-12T00:58:52;96.67;;;36.20;;
5831;SDS011;50943;51.448;7.646;2023-02-12T01:01:20;82.23;;;33.30;;
5831;SDS011;50943;51.448;7.646;2023-02-12T01:03:46;78.70;;;33.47;;
5831;SDS011;50943;51.448;7.646;2023-02-12T01:06:13;81.53;;;33.17;;
5831;SDS011;50943;51.448;7.646;2023-02-12T01:08:40;87.77;;;35.80;;
5831;SDS011;50943;51.448;7.646;2023-02-12T01:11:06;84.90;;;33.90;;
5831;SDS011;50943;51.448;7.646;2023-02-12T01:13:33;84.57;;;34.30;;
5831;SDS011;50943;51.448;7.646;2023-02-12T01:16:01;81.77;;;35.57;;
5831;SDS011;50943;51.448;7.646;2023-02-12T01:18:34;80.20;;;34.67;;
5831;SDS011;50943;51.448;7.646;2023-02-12T01:21:01;81.67;;;34.37;;
5831;SDS011;50943;51.448;7.646;2023-02-12T01:23:27;83.00;;;31.43;;
5831;SDS011;50943;51.448;7.646;2023-02-12T01:25:54;82.10;;;32.57;;
5831;SDS011;50943;51.448;7.646;2023-02-12T01:28:20;84.93;;;32.70;;
5831;SDS011;50943;51.448;7.646;2023-02-12T01:30:47;83.30;;;33.07;;
5831;SDS011;50943;51.448;7.646;2023-02-12T01:33:14;82.93;;;32.10;;
5831;SDS011;50943;51.448;7.646;2023-02-12T01:35:41;92.50;;;33.87;;
5831;SDS011;50943;51.448;7.646;2023-02-12T01:38:08;82.83;;;32.30;;
5831;SDS011;50943;51.448;7.646;2023-02-12T01:40:35;87.30;;;33.97;;
5831;SDS011;50943;51.448;7.646;2023-02-12T01:43:02;92.27;;;33.20;;
5831;SDS011;50943;51.448;7.646;2023-02-12T01:48:19;80.43;;;30.47;;
5831;SDS011;50943;51.448;7.646;2023-02-12T01:50:47;79.53;;;32.90;;
5831;SDS011;50943;51.448;7.646;2023-02-12T01:53:15;79.40;;;31.03;;
5831;SDS011;50943;51.448;7.646;2023-02-12T01:55:45;78.30;;;32.63;;
5831;SDS011;50943;51.448;7.646;2023-02-12T01:58:13;80.73;;;31.00;;
5831;SDS011;50943;51.448;7.646;2023-02-12T02:00:40;73.97;;;32.90;;
5831;SDS011;50943;51.448;7.646;2023-02-12T02:03:07;73.77;;;30.80;;
5831;SDS011;50943;51.448;7.646;2023-02-12T02:05:36;77.90;;;32.40;;
5831;SDS011;50943;51.448;7.646;2023-02-12T02:08:10;70.87;;;30.70;;
5831;SDS011;50943;51.448;7.646;2023-02-12T02:10:38;83.87;;;31.90;;
5831;SDS011;50943;51.448;7.646;2023-02-12T02:13:05;83.20;;;32.00;;
5831;SDS011;50943;51.448;7.646;2023-02-12T02:15:50;73.70;;;28.63;;
5831;SDS011;50943;51.448;7.646;2023-02-12T02:18:22;83.77;;;30.37;;
5831;SDS011;50943;51.448;7.646;2023-02-12T02:24:12;73.90;;;30.07;;
5831;SDS011;50943;51.448;7.646;2023-02-12T02:27:07;75.50;;;30.77;;
5831;SDS011;50943;51.448;7.646;2023-02-12T02:32:41;73.43;;;29.93;;
5831;SDS011;50943;51.448;7.646;2023-02-12T02:35:11;82.37;;;32.00;;
5831;SDS011;50943;51.448;7.646;2023-02-12T02:37:42;78.57;;;31.47;;
5831;SDS011;50943;51.448;7.646;2023-02-12T02:40:13;78.10;;;31.90;;
5831;SDS011;50943;51.448;7.646;2023-02-12T02:42:44;85.80;;;32.23;;
5831;SDS011;50943;51.448;7.646;2023-02-12T02:45:15;68.00;;;30.50;;
5831;SDS011;50943;51.448;7.646;2023-02-12T02:47:45;78.10;;;31.83;;
5831;SDS011;50943;51.448;7.646;2023-02-12T02:50:18;70.97;;;30.63;;
5831;SDS011;50943;51.448;7.646;2023-02-12T02:52:47;75.33;;;30.17;;
5831;SDS011;50943;51.448;7.646;2023-02-12T02:55:17;74.30;;;31.60;;
5831;SDS011;50943;51.448;7.646;2023-02-12T02:57:46;76.70;;;30.50;;
5831;SDS011;50943;51.448;7.646;2023-02-12T03:00:17;83.77;;;30.87;;
5831;SDS011;50943;51.448;7.646;2023-02-12T03:02:47;80.70;;;31.50;;
5831;SDS011;50943;51.448;7.646;2023-02-12T03:05:16;82.83;;;31.77;;
5831;SDS011;50943;51.448;7.646;2023-02-12T03:07:47;79.00;;;33.57;;
5831;SDS011;50943;51.448;7.646;2023-02-12T03:10:17;72.23;;;30.60;;
5831;SDS011;50943;51.448;7.646;2023-02-12T03:12:47;80.50;;;30.67;;
5831;SDS011;50943;51.448;7.646;2023-02-12T03:15:20;67.50;;;29.00;;
5831;SDS011;50943;51.448;7.646;2023-02-12T03:17:50;74.93;;;32.00;;
5831;SDS011;50943;51.448;7.646;2023-02-12T03:20:18;78.07;;;33.27;;
5831;SDS011;50943;51.448;7.646;2023-02-12T03:22:47;88.30;;;33.43;;
5831;SDS011;50943;51.448;7.646;2023-02-12T03:25:16;76.90;;;28.90;;
5831;SDS011;50943;51.448;7.646;2023-02-12T03:27:45;84.17;;;32.20;;
5831;SDS011;50943;51.448;7.646;2023-02-12T03:30:14;73.43;;;30.50;;
5831;SDS011;50943;51.448;7.646;2023-02-12T03:32:44;83.67;;;32.97;;
5831;SDS011;50943;51.448;7.646;2023-02-12T03:35:13;76.87;;;31.00;;
5831;SDS011;50943;51.448;7.646;2023-02-12T03:37:44;84.77;;;30.00;;
5831;SDS011;50943;51.448;7.646;2023-02-12T03:40:14;70.53;;;29.97;;
5831;SDS011;50943;51.448;7.646;2023-02-12T03:42:44;81.03;;;31.17;;
5831;SDS011;50943;51.448;7.646;2023-02-12T03:45:18;85.13;;;30.60;;
5831;SDS011;50943;51.448;7.646;2023-02-12T03:47:58;81.70;;;31.00;;
5831;SDS011;50943;51.448;7.646;2023-02-12T03:50:31;72.77;;;30.10;;
5831;SDS011;50943;51.448;7.646;2023-02-12T03:53:00;77.17;;;30.30;;
5831;SDS011;50943;51.448;7.646;2023-02-12T03:55:27;72.37;;;30.03;;
5831;SDS011;50943;51.448;7.646;2023-02-12T03:57:54;74.50;;;31.90;;
5831;SDS011;50943;51.448;7.646;2023-02-12T04:00:25;72.97;;;30.30;;
5831;SDS011;50943;51.448;7.646;2023-02-12T04:02:52;80.23;;;30.00;;
5831;SDS011;50943;51.448;7.646;2023-02-12T04:05:21;70.93;;;30.47;;
5831;SDS011;50943;51.448;7.646;2023-02-12T04:07:49;77.33;;;30.70;;
5831;SDS011;50943;51.448;7.646;2023-02-12T04:10:17;77.67;;;29.60;;
5831;SDS011;50943;51.448;7.646;2023-02-12T04:12:50;72.00;;;30.07;;
5831;SDS011;50943;51.448;7.646;2023-02-12T04:15:27;79.23;;;32.57;;
5831;SDS011;50943;51.448;7.646;2023-02-12T04:18:00;85.73;;;31.70;;
5831;SDS011;50943;51.448;7.646;2023-02-12T04:20:38;76.00;;;31.40;;
5831;SDS011;50943;51.448;7.646;2023-02-12T04:23:10;66.77;;;28.80;;
5831;SDS011;50943;51.448;7.646;2023-02-12T04:25:43;69.20;;;29.77;;
5831;SDS011;50943;51.448;7.646;2023-02-12T04:28:17;74.57;;;30.33;;
5831;SDS011;50943;51.448;7.646;2023-02-12T04:30:53;72.50;;;30.37;;
5831;SDS011;50943;51.448;7.646;2023-02-12T04:33:22;72.00;;;27.93;;
5831;SDS011;50943;51.448;7.646;2023-02-12T04:35:54;76.50;;;30.30;;
5831;SDS011;50943;51.448;7.646;2023-02-12T04:38:26;67.70;;;29.90;;
5831;SDS011;50943;51.448;7.646;2023-02-12T04:40:56;80.10;;;31.60;;
5831;SDS011;50943;51.448;7.646;2023-02-12T04:43:27;70.17;;;29.87;;
5831;SDS011;50943;51.448;7.646;2023-02-12T04:45:54;69.73;;;29.70;;
5831;SDS011;50943;51.448;7.646;2023-02-12T04:48:21;75.77;;;30.37;;
5831;SDS011;50943;51.448;7.646;2023-02-12T04:50:48;69.00;;;29.97;;
5831;SDS011;50943;51.448;7.646;2023-02-12T04:53:16;79.03;;;30.00;;
5831;SDS011;50943;51.448;7.646;2023-02-12T04:55:43;68.00;;;27.73;;
5831;SDS011;50943;51.448;7.646;2023-02-12T04:58:10;65.60;;;27.07;;
5831;SDS011;50943;51.448;7.646;2023-02-12T05:00:36;67.90;;;28.70;;
5831;SDS011;50943;51.448;7.646;2023-02-12T05:03:03;74.00;;;30.07;;
5831;SDS011;50943;51.448;7.646;2023-02-12T05:05:30;71.10;;;29.27;;
5831;SDS011;50943;51.448;7.646;2023-02-12T05:07:57;67.13;;;28.23;;
5831;SDS011;50943;51.448;7.646;2023-02-12T05:10:25;63.47;;;27.40;;
5831;SDS011;50943;51.448;7.646;2023-02-12T05:12:52;65.97;;;27.90;;
5831;SDS011;50943;51.448;7.646;2023-02-12T05:15:19;70.03;;;28.27;;
5831;SDS011;50943;51.448;7.646;2023-02-12T05:17:46;70.07;;;30.17;;
5831;SDS011;50943;51.448;7.646;2023-02-12T05:20:13;74.30;;;30.10;;
5831;SDS011;50943;51.448;7.646;2023-02-12T05:22:40;66.90;;;28.27;;
5831;SDS011;50943;51.448;7.646;2023-02-12T05:25:07;63.37;;;26.67;;
5831;SDS011;50943;51.448;7.646;2023-02-12T05:27:35;71.93;;;29.40;;
5831;SDS011;50943;51.448;7.646;2023-02-12T05:30:02;65.63;;;28.30;;
5831;SDS011;50943;51.448;7.646;2023-02-12T05:32:29;67.77;;;27.07;;
5831;SDS011;50943;51.448;7.646;2023-02-12T05:34:56;70.43;;;27.87;;
5831;SDS011;50943;51.448;7.646;2023-02-12T05:37:23;57.77;;;26.03;;
5831;SDS011;50943;51.448;7.646;2023-02-12T05:39:50;55.57;;;25.63;;
5831;SDS011;50943;51.448;7.646;2023-02-12T05:42:18;77.87;;;28.33;;
5831;SDS011;50943;51.448;7.646;2023-02-12T05:44:45;68.27;;;27.10;;
5831;SDS011;50943;51.448;7.646;2023-02-12T05:47:12;62.87;;;27.17;;
5831;SDS011;50943;51.448;7.646;2023-02-12T05:49:39;60.60;;;26.40;;
5831;SDS011;50943;51.448;7.646;2023-02-12T05:52:06;68.97;;;30.40;;
5831;SDS011;50943;51.448;7.646;2023-02-12T05:54:33;68.90;;;27.60;;
5831;SDS011;50943;51.448;7.646;2023-02-12T05:57:00;67.63;;;26.90;;
5831;SDS011;50943;51.448;7.646;2023-02-12T05:59:26;71.93;;;27.60;;
5831;SDS011;50943;51.448;7.646;2023-02-12T06:01:54;63.13;;;26.27;;
5831;SDS011;50943;51.448;7.646;2023-02-12T06:04:22;56.93;;;25.10;;
5831;SDS011;50943;51.448;7.646;2023-02-12T06:06:50;70.17;;;26.97;;
5831;SDS011;50943;51.448;7.646;2023-02-12T06:09:16;66.00;;;27.70;;
5831;SDS011;50943;51.448;7.646;2023-02-12T06:11:43;64.77;;;27.30;;
5831;SDS011;50943;51.448;7.646;2023-02-12T06:14:11;68.20;;;28.03;;
5831;SDS011;50943;51.448;7.646;2023-02-12T06:16:39;66.23;;;27.80;;
5831;SDS011;50943;51.448;7.646;2023-02-12T06:19:08;61.93;;;27.60;;
5831;SDS011;50943;51.448;7.646;2023-02-12T06:21:35;64.57;;;26.97;;
5831;SDS011;50943;51.448;7.646;2023-02-12T06:24:02;62.70;;;26.10;;
5831;SDS011;50943;51.448;7.646;2023-02-12T06:26:29;61.37;;;27.10;;
5831;SDS011;50943;51.448;7.646;2023-02-12T06:28:56;76.13;;;29.13;;
5831;SDS011;50943;51.448;7.646;2023-02-12T06:31:23;68.37;;;27.83;;
5831;SDS011;50943;51.448;7.646;2023-02-12T06:33:51;59.23;;;26.57;;
5831;SDS011;50943;51.448;7.646;2023-02-12T06:36:19;60.23;;;28.10;;
5831;SDS011;50943;51.448;7.646;2023-02-12T06:38:47;61.47;;;26.37;;
5831;SDS011;50943;51.448;7.646;2023-02-12T06:41:14;72.23;;;28.20;;
5831;SDS011;50943;51.448;7.646;2023-02-12T06:43:41;63.17;;;26.43;;
5831;SDS011;50943;51.448;7.646;2023-02-12T06:46:08;64.50;;;25.83;;
5831;SDS011;50943;51.448;7.646;2023-02-12T06:48:37;62.00;;;27.00;;
5831;SDS011;50943;51.448;7.646;2023-02-12T06:51:04;57.70;;;25.93;;
5831;SDS011;50943;51.448;7.646;2023-02-12T06:53:33;58.10;;;26.13;;
5831;SDS011;50943;51.448;7.646;2023-02-12T06:56:00;71.43;;;26.80;;
5831;SDS011;50943;51.448;7.646;2023-02-12T06:58:28;57.50;;;24.37;;
5831;SDS011;50943;51.448;7.646;2023-02-12T07:00:54;57.37;;;24.80;;
5831;SDS011;50943;51.448;7.646;2023-02-12T07:03:21;54.70;;;24.10;;
5831;SDS011;50943;51.448;7.646;2023-02-12T07:05:47;57.43;;;24.17;;
5831;SDS011;50943;51.448;7.646;2023-02-12T07:08:14;65.43;;;26.00;;
5831;SDS011;50943;51.448;7.646;2023-02-12T07:10:42;55.13;;;25.60;;
5831;SDS011;50943;51.448;7.646;2023-02-12T07:13:13;60.10;;;25.30;;
5831;SDS011;50943;51.448;7.646;2023-02-12T07:15:40;57.40;;;26.60;;
5831;SDS011;50943;51.448;7.646;2023-02-12T07:18:07;62.13;;;25.27;;
5831;SDS011;50943;51.448;7.646;2023-02-12T07:20:33;59.03;;;27.10;;
5831;SDS011;50943;51.448;7.646;2023-02-12T07:23:00;62.17;;;26.80;;
5831;SDS011;50943;51.448;7.646;2023-02-12T07:25:26;62.73;;;25.83;;
5831;SDS011;50943;51.448;7.646;2023-02-12T07:27:55;59.47;;;25.67;;
5831;SDS011;50943;51.448;7.646;2023-02-12T07:30:22;60.33;;;25.93;;
5831;SDS011;50943;51.448;7.646;2023-02-12T07:32:49;64.83;;;28.47;;
5831;SDS011;50943;51.448;7.646;2023-02-12T07:35:16;59.70;;;27.33;;
5831;SDS011;50943;51.448;7.646;2023-02-12T07:37:42;55.53;;;24.80;;
5831;SDS011;50943;51.448;7.646;2023-02-12T07:40:09;55.97;;;24.93;;
5831;SDS011;50943;51.448;7.646;2023-02-12T07:42:36;56.10;;;24.87;;
5831;SDS011;50943;51.448;7.646;2023-02-12T07:45:04;57.50;;;24.30;;
5831;SDS011;50943;51.448;7.646;2023-02-12T07:47:31;55.20;;;23.97;;
5831;SDS011;50943;51.448;7.646;2023-02-12T07:49:59;55.17;;;25.67;;
5831;SDS011;50943;51.448;7.646;2023-02-12T07:52:26;58.83;;;25.20;;
5831;SDS011;50943;51.448;7.646;2023-02-12T07:54:52;55.17;;;24.13;;
5831;SDS011;50943;51.448;7.646;2023-02-12T07:57:19;54.77;;;24.60;;
5831;SDS011;50943;51.448;7.646;2023-02-12T07:59:46;54.20;;;24.73;;
5831;SDS011;50943;51.448;7.646;2023-02-12T08:02:14;56.07;;;25.97;;
5831;SDS011;50943;51.448;7.646;2023-02-12T08:04:41;61.20;;;25.47;;
5831;SDS011;50943;51.448;7.646;2023-02-12T08:07:07;64.93;;;25.73;;
5831;SDS011;50943;51.448;7.646;2023-02-12T08:09:34;59.97;;;24.60;;
5831;SDS011;50943;51.448;7.646;2023-02-12T08:12:00;52.90;;;24.30;;
5831;SDS011;50943;51.448;7.646;2023-02-12T08:14:27;62.00;;;27.40;;
5831;SDS011;50943;51.448;7.646;2023-02-12T08:16:54;63.67;;;27.57;;
5831;SDS011;50943;51.448;7.646;2023-02-12T08:19:22;64.83;;;27.20;;
5831;SDS011;50943;51.448;7.646;2023-02-12T08:21:49;63.30;;;27.43;;
5831;SDS011;50943;51.448;7.646;2023-02-12T08:24:16;61.40;;;28.27;;
5831;SDS011;50943;51.448;7.646;2023-02-12T08:26:43;67.37;;;27.30;;
5831;SDS011;50943;51.448;7.646;2023-02-12T08:29:10;63.60;;;27.37;;
5831;SDS011;50943;51.448;7.646;2023-02-12T08:31:38;68.63;;;26.17;;
5831;SDS011;50943;51.448;7.646;2023-02-12T08:34:06;59.57;;;27.10;;
5831;SDS011;50943;51.448;7.646;2023-02-12T08:36:37;64.20;;;28.60;;
5831;SDS011;50943;51.448;7.646;2023-02-12T08:39:05;63.40;;;27.47;;
5831;SDS011;50943;51.448;7.646;2023-02-12T08:41:33;61.10;;;27.73;;
5831;SDS011;50943;51.448;7.646;2023-02-12T08:44:01;68.07;;;28.80;;
5831;SDS011;50943;51.448;7.646;2023-02-12T08:46:29;67.87;;;28.10;;
5831;SDS011;50943;51.448;7.646;2023-02-12T08:48:58;56.40;;;26.20;;
5831;SDS011;50943;51.448;7.646;2023-02-12T08:51:27;62.83;;;27.93;;
5831;SDS011;50943;51.448;7.646;2023-02-12T08:53:58;59.40;;;26.90;;
5831;SDS011;50943;51.448;7.646;2023-02-12T08:56:26;65.03;;;29.37;;
5831;SDS011;50943;51.448;7.646;2023-02-12T08:58:54;59.80;;;26.97;;
5831;SDS011;50943;51.448;7.646;2023-02-12T09:01:22;62.40;;;25.30;;
5831;SDS011;50943;51.448;7.646;2023-02-12T09:03:50;56.60;;;25.73;;
5831;SDS011;50943;51.448;7.646;2023-02-12T09:06:18;61.03;;;26.10;;
5831;SDS011;50943;51.448;7.646;2023-02-12T09:08:46;58.27;;;24.67;;
5831;SDS011;50943;51.448;7.646;2023-02-12T09:11:18;56.50;;;25.67;;
5831;SDS011;50943;51.448;7.646;2023-02-12T09:13:49;45.97;;;22.43;;
5831;SDS011;50943;51.448;7.646;2023-02-12T09:16:15;45.97;;;21.43;;
5831;SDS011;50943;51.448;7.646;2023-02-12T09:18:42;48.83;;;23.37;;
5831;SDS011;50943;51.448;7.646;2023-02-12T09:21:09;44.93;;;20.47;;
5831;SDS011;50943;51.448;7.646;2023-02-12T09:23:38;45.73;;;22.10;;
5831;SDS011;50943;51.448;7.646;2023-02-12T09:26:05;51.07;;;23.93;;
5831;SDS011;50943;51.448;7.646;2023-02-12T09:28:34;46.03;;;21.90;;
5831;SDS011;50943;51.448;7.646;2023-02-12T09:31:03;46.07;;;21.80;;
5831;SDS011;50943;51.448;7.646;2023-02-12T09:33:31;45.50;;;22.13;;
5831;SDS011;50943;51.448;7.646;2023-02-12T09:35:59;46.40;;;21.33;;
5831;SDS011;50943;51.448;7.646;2023-02-12T09:38:27;43.57;;;20.03;;
5831;SDS011;50943;51.448;7.646;2023-02-12T09:40:58;41.87;;;18.67;;
5831;SDS011;50943;51.448;7.646;2023-02-12T09:43:34;33.53;;;16.20;;
5831;SDS011;50943;51.448;7.646;2023-02-12T09:46:07;36.60;;;17.10;;
5831;SDS011;50943;51.448;7.646;2023-02-12T09:48:46;34.53;;;18.33;;
5831;SDS011;50943;51.448;7.646;2023-02-12T09:51:20;40.87;;;18.90;;
5831;SDS011;50943;51.448;7.646;2023-02-12T09:53:47;37.60;;;20.60;;
5831;SDS011;50943;51.448;7.646;2023-02-12T09:56:25;41.63;;;20.50;;
5831;SDS011;50943;51.448;7.646;2023-02-12T09:59:05;43.93;;;19.97;;
5831;SDS011;50943;51.448;7.646;2023-02-12T10:01:32;37.50;;;18.97;;
5831;SDS011;50943;51.448;7.646;2023-02-12T10:04:00;41.83;;;20.47;;
5831;SDS011;50943;51.448;7.646;2023-02-12T10:06:27;52.73;;;22.10;;
5831;SDS011;50943;51.448;7.646;2023-02-12T10:08:59;40.93;;;21.33;;
5831;SDS011;50943;51.448;7.646;2023-02-12T10:11:34;50.57;;;22.20;;
5831;SDS011;50943;51.448;7.646;2023-02-12T10:14:14;44.20;;;21.43;;
5831;SDS011;50943;51.448;7.646;2023-02-12T10:16:49;47.17;;;22.57;;
5831;SDS011;50943;51.448;7.646;2023-02-12T10:19:25;45.00;;;22.80;;
5831;SDS011;50943;51.448;7.646;2023-02-12T10:22:02;46.47;;;22.93;;
5831;SDS011;50943;51.448;7.646;2023-02-12T10:24:42;48.47;;;22.67;;
5831;SDS011;50943;51.448;7.646;2023-02-12T10:27:14;42.70;;;21.70;;
5831;SDS011;50943;51.448;7.646;2023-02-12T10:29:44;46.60;;;24.10;;
5831;SDS011;50943;51.448;7.646;2023-02-12T10:32:13;45.80;;;21.00;;
5831;SDS011;50943;51.448;7.646;2023-02-12T10:34:43;46.70;;;22.03;;
5831;SDS011;50943;51.448;7.646;2023-02-12T10:37:12;46.00;;;21.23;;
5831;SDS011;50943;51.448;7.646;2023-02-12T10:39:42;45.17;;;21.67;;
5831;SDS011;50943;51.448;7.646;2023-02-12T10:42:15;45.67;;;21.00;;
5831;SDS011;50943;51.448;7.646;2023-02-12T10:44:44;43.90;;;21.53;;
5831;SDS011;50943;51.448;7.646;2023-02-12T10:47:12;50.27;;;23.17;;
5831;SDS011;50943;51.448;7.646;2023-02-12T10:49:43;61.83;;;23.30;;
5831;SDS011;50943;51.448;7.646;2023-02-12T10:52:11;48.07;;;21.57;;
5831;SDS011;50943;51.448;7.646;2023-02-12T10:54:41;41.30;;;21.87;;
5831;SDS011;50943;51.448;7.646;2023-02-12T10:57:16;45.43;;;19.13;;
5831;SDS011;50943;51.448;7.646;2023-02-12T10:59:47;42.23;;;19.63;;
5831;SDS011;50943;51.448;7.646;2023-02-12T11:02:23;35.90;;;18.80;;
5831;SDS011;50943;51.448;7.646;2023-02-12T11:04:52;37.43;;;18.57;;
5831;SDS011;50943;51.448;7.646;2023-02-12T11:07:19;40.03;;;18.80;;
5831;SDS011;50943;51.448;7.646;2023-02-12T11:09:47;35.30;;;17.77;;
5831;SDS011;50943;51.448;7.646;2023-02-12T11:12:18;38.23;;;16.70;;
5831;SDS011;50943;51.448;7.646;2023-02-12T11:14:49;34.93;;;18.13;;
5831;SDS011;50943;51.448;7.646;2023-02-12T11:17:21;39.93;;;19.77;;
5831;SDS011;50943;51.448;7.646;2023-02-12T11:20:00;40.90;;;18.03;;
5831;SDS011;50943;51.448;7.646;2023-02-12T11:22:33;35.70;;;18.20;;
5831;SDS011;50943;51.448;7.646;2023-02-12T11:25:03;41.50;;;18.77;;
5831;SDS011;50943;51.448;7.646;2023-02-12T11:27:36;40.90;;;19.47;;
5831;SDS011;50943;51.448;7.646;2023-02-12T11:30:09;35.63;;;18.23;;
5831;SDS011;50943;51.448;7.646;2023-02-12T11:32:41;38.93;;;18.50;;
5831;SDS011;50943;51.448;7.646;2023-02-12T11:35:11;35.93;;;17.37;;
5831;SDS011;50943;51.448;7.646;2023-02-12T11:37:39;39.43;;;18.93;;
5831;SDS011;50943;51.448;7.646;2023-02-12T11:40:12;39.63;;;18.10;;
5831;SDS011;50943;51.448;7.646;2023-02-12T11:42:43;49.10;;;19.47;;
5831;SDS011;50943;51.448;7.646;2023-02-12T11:45:16;35.50;;;17.50;;
5831;SDS011;50943;51.448;7.646;2023-02-12T11:47:44;37.10;;;17.57;;
5831;SDS011;50943;51.448;7.646;2023-02-12T11:50:15;35.87;;;17.90;;
5831;SDS011;50943;51.448;7.646;2023-02-12T11:52:47;37.70;;;17.70;;
5831;SDS011;50943;51.448;7.646;2023-02-12T11:55:18;34.90;;;18.20;;
5831;SDS011;50943;51.448;7.646;2023-02-12T11:57:47;41.90;;;19.70;;
5831;SDS011;50943;51.448;7.646;2023-02-12T12:00:17;49.57;;;19.60;;
5831;SDS011;50943;51.448;7.646;2023-02-12T12:02:47;41.40;;;20.80;;
5831;SDS011;50943;51.448;7.646;2023-02-12T12:05:17;38.87;;;19.20;;
5831;SDS011;50943;51.448;7.646;2023-02-12T12:07:45;41.00;;;19.73;;
5831;SDS011;50943;51.448;7.646;2023-02-12T12:10:15;42.00;;;19.63;;
5831;SDS011;50943;51.448;7.646;2023-02-12T12:12:47;39.37;;;18.70;;
5831;SDS011;50943;51.448;7.646;2023-02-12T12:15:18;37.10;;;19.00;;
5831;SDS011;50943;51.448;7.646;2023-02-12T12:18:08;37.30;;;18.80;;
5831;SDS011;50943;51.448;7.646;2023-02-12T12:21:00;40.53;;;19.80;;
5831;SDS011;50943;51.448;7.646;2023-02-12T12:23:30;42.50;;;20.20;;
5831;SDS011;50943;51.448;7.646;2023-02-12T12:26:00;44.43;;;20.00;;
5831;SDS011;50943;51.448;7.646;2023-02-12T12:28:31;36.00;;;19.00;;
5831;SDS011;50943;51.448;7.646;2023-02-12T12:31:02;34.93;;;18.67;;
5831;SDS011;50943;51.448;7.646;2023-02-12T12:33:34;36.57;;;20.20;;
5831;SDS011;50943;51.448;7.646;2023-02-12T12:36:21;51.63;;;19.10;;
5831;SDS011;50943;51.448;7.646;2023-02-12T12:38:58;35.73;;;18.10;;
5831;SDS011;50943;51.448;7.646;2023-02-12T12:41:31;37.03;;;18.97;;
5831;SDS011;50943;51.448;7.646;2023-02-12T12:44:06;40.07;;;19.37;;
5831;SDS011;50943;51.448;7.646;2023-02-12T12:46:58;41.20;;;20.90;;
5831;SDS011;50943;51.448;7.646;2023-02-12T12:55:13;50.93;;;22.13;;
5831;SDS011;50943;51.448;7.646;2023-02-12T12:57:51;43.60;;;23.50;;
5831;SDS011;50943;51.448;7.646;2023-02-12T13:00:27;46.53;;;22.47;;
5831;SDS011;50943;51.448;7.646;2023-02-12T13:09:10;39.53;;;20.50;;
5831;SDS011;50943;51.448;7.646;2023-02-12T13:11:48;41.37;;;21.47;;
5831;SDS011;50943;51.448;7.646;2023-02-12T13:14:24;43.87;;;20.33;;
5831;SDS011;50943;51.448;7.646;2023-02-12T13:16:58;41.60;;;22.50;;
5831;SDS011;50943;51.448;7.646;2023-02-12T13:19:34;40.40;;;21.20;;
5831;SDS011;50943;51.448;7.646;2023-02-12T13:22:08;39.90;;;20.53;;
5831;SDS011;50943;51.448;7.646;2023-02-12T13:24:37;42.53;;;22.03;;
5831;SDS011;50943;51.448;7.646;2023-02-12T13:27:09;51.33;;;22.70;;
5831;SDS011;50943;51.448;7.646;2023-02-12T13:29:39;52.90;;;24.03;;
5831;SDS011;50943;51.448;7.646;2023-02-12T13:32:10;44.93;;;22.20;;
5831;SDS011;50943;51.448;7.646;2023-02-12T13:34:42;46.73;;;22.63;;
5831;SDS011;50943;51.448;7.646;2023-02-12T13:37:10;38.40;;;20.20;;
5831;SDS011;50943;51.448;7.646;2023-02-12T13:39:41;46.57;;;20.03;;
5831;SDS011;50943;51.448;7.646;2023-02-12T13:42:15;38.43;;;19.77;;
5831;SDS011;50943;51.448;7.646;2023-02-12T13:44:49;48.53;;;20.57;;
5831;SDS011;50943;51.448;7.646;2023-02-12T13:47:24;36.67;;;19.47;;
5831;SDS011;50943;51.448;7.646;2023-02-12T13:49:57;39.63;;;20.10;;
5831;SDS011;50943;51.448;7.646;2023-02-12T13:52:27;44.27;;;20.93;;
5831;SDS011;50943;51.448;7.646;2023-02-12T13:55:00;41.90;;;20.00;;
5831;SDS011;50943;51.448;7.646;2023-02-12T13:57:35;42.77;;;20.00;;
5831;SDS011;50943;51.448;7.646;2023-02-12T14:00:02;44.60;;;21.10;;
5831;SDS011;50943;51.448;7.646;2023-02-12T14:02:42;36.00;;;19.60;;
5831;SDS011;50943;51.448;7.646;2023-02-12T14:05:22;41.20;;;20.60;;
5831;SDS011;50943;51.448;7.646;2023-02-12T14:07:54;39.50;;;20.50;;
5831;SDS011;50943;51.448;7.646;2023-02-12T14:10:26;40.07;;;21.30;;
5831;SDS011;50943;51.448;7.646;2023-02-12T14:12:55;40.20;;;22.00;;
5831;SDS011;50943;51.448;7.646;2023-02-12T14:15:28;44.70;;;20.90;;
5831;SDS011;50943;51.448;7.646;2023-02-12T14:27:16;50.53;;;25.43;;
5831;SDS011;50943;51.448;7.646;2023-02-12T14:29:58;41.33;;;21.80;;
5831;SDS011;50943;51.448;7.646;2023-02-12T14:35:34;57.37;;;26.93;;
5831;SDS011;50943;51.448;7.646;2023-02-12T14:38:03;52.43;;;27.67;;
5831;SDS011;50943;51.448;7.646;2023-02-12T14:41:14;49.43;;;23.97;;
5831;SDS011;50943;51.448;7.646;2023-02-12T14:47:12;54.67;;;23.90;;
5831;SDS011;50943;51.448;7.646;2023-02-12T14:50:13;54.63;;;26.80;;
5831;SDS011;50943;51.448;7.646;2023-02-12T14:52:45;52.40;;;24.57;;
5831;SDS011;50943;51.448;7.646;2023-02-12T14:55:18;43.60;;;22.10;;
5831;SDS011;50943;51.448;7.646;2023-02-12T14:57:47;50.70;;;22.97;;
5831;SDS011;50943;51.448;7.646;2023-02-12T15:00:19;47.40;;;23.90;;
5831;SDS011;50943;51.448;7.646;2023-02-12T15:02:53;40.73;;;22.63;;
5831;SDS011;50943;51.448;7.646;2023-02-12T15:05:25;53.47;;;25.63;;
5831;SDS011;50943;51.448;7.646;2023-02-12T15:07:54;57.30;;;25.30;;
5831;SDS011;50943;51.448;7.646;2023-02-12T15:10:23;55.53;;;24.60;;
5831;SDS011;50943;51.448;7.646;2023-02-12T15:12:53;53.63;;;25.67;;
5831;SDS011;50943;51.448;7.646;2023-02-12T15:15:30;59.03;;;26.73;;
5831;SDS011;50943;51.448;7.646;2023-02-12T15:18:01;53.23;;;25.20;;
5831;SDS011;50943;51.448;7.646;2023-02-12T15:20:32;44.87;;;21.20;;
5831;SDS011;50943;51.448;7.646;2023-02-12T15:23:00;50.30;;;23.40;;
5831;SDS011;50943;51.448;7.646;2023-02-12T15:25:29;47.67;;;22.57;;